createdAt,value
2022-10-19T00:21:54.496Z,101447.55
2022-10-19T00:51:58.103Z,101439.91
2022-10-19T01:22:01.629Z,101436.41
2022-10-19T01:52:04.892Z,101415.69
2022-10-19T02:22:08.350Z,101405.26
2022-10-19T02:52:11.906Z,101407.30
2022-10-19T03:22:15.221Z,101402.16
2022-10-19T03:52:18.365Z,101396.95
2022-10-19T04:22:21.730Z,101400.52
2022-10-19T04:52:24.908Z,101411.98
2022-10-19T05:22:28.402Z,101416.52
2022-10-19T05:52:31.921Z,101438.25
2022-10-19T06:22:36.238Z,101463.52
2022-10-19T06:52:39.634Z,101490.33
2022-10-19T07:22:43.044Z,101511.02
2022-10-19T07:52:46.259Z,101520.06
2022-10-19T08:22:52.024Z,101530.97
2022-10-19T08:52:58.176Z,101528.56
2022-10-19T09:23:01.697Z,101556.03
2022-10-19T09:53:04.855Z,101569.22
2022-10-19T10:23:08.699Z,101576.13
2022-10-19T10:53:11.849Z,101598.23
2022-10-19T11:23:16.135Z,101638.47
2022-10-19T11:53:29.117Z,101622.37
2022-10-19T12:23:33.761Z,101609.83
2022-10-19T12:53:36.462Z,101608.03
2022-10-19T13:23:40.106Z,101602.89
2022-10-19T13:53:42.972Z,101624.53
2022-10-19T14:53:50.249Z,101640.84
2022-10-19T15:23:53.329Z,101665.38
2022-10-19T15:53:56.393Z,101689.28
2022-10-19T16:23:59.834Z,101718.33
2022-10-19T16:54:03.004Z,101743.62
2022-10-19T17:24:07.112Z,101782.46
2022-10-19T17:54:10.235Z,101801.08
2022-10-19T18:24:15.330Z,101812.70
2022-10-19T18:54:18.936Z,101819.07
2022-10-19T19:24:22.386Z,101849.70
2022-10-19T19:54:25.668Z,101871.52
2022-10-19T20:24:30.361Z,101868.74
2022-10-19T20:54:35.833Z,101879.25
2022-10-19T21:24:42.279Z,101897.98
2022-10-19T21:54:45.347Z,101907.15
2022-10-19T22:24:48.186Z,101923.33
2022-10-19T22:54:51.479Z,101932.29
2022-10-19T23:24:55.001Z,101935.62
2022-10-19T23:54:58.462Z,101943.91
